sensor_id;sensor_type;location;lat;lon;timestamp;temperature;humidity
5980;DHT22;3016;50.308;8.258;2023-07-20T00:02:32;17.40;1.00
5980;DHT22;3016;50.308;8.258;2023-07-20T00:05:32;17.40;1.00
5980;DHT22;3016;50.308;8.258;2023-07-20T00:08:33;17.40;1.00
5980;DHT22;3016;50.308;8.258;2023-07-20T00:11:36;17.40;1.00
5980;DHT22;3016;50.308;8.258;2023-07-20T00:14:40;17.40;1.00
5980;DHT22;3016;50.308;8.258;2023-07-20T00:17:41;17.30;1.00
5980;DHT22;3016;50.308;8.258;2023-07-20T00:20:42;17.20;1.00
5980;DHT22;3016;50.308;8.258;2023-07-20T00:23:42;17.00;1.00
5980;DHT22;3016;50.308;8.258;2023-07-20T00:26:43;16.90;1.00
5980;DHT22;3016;50.308;8.258;2023-07-20T00:29:44;16.90;1.00
5980;DHT22;3016;50.308;8.258;2023-07-20T00:32:45;16.80;1.00
5980;DHT22;3016;50.308;8.258;2023-07-20T00:35:46;16.60;1.00
5980;DHT22;3016;50.308;8.258;2023-07-20T00:38:46;16.60;1.00
5980;DHT22;3016;50.308;8.258;2023-07-20T00:41:47;16.50;1.00
5980;DHT22;3016;50.308;8.258;2023-07-20T00:44:48;16.40;1.00
5980;DHT22;3016;50.308;8.258;2023-07-20T00:47:48;16.20;1.00
5980;DHT22;3016;50.308;8.258;2023-07-20T00:50:49;16.10;1.00
5980;DHT22;3016;50.308;8.258;2023-07-20T00:53:51;15.90;1.00
5980;DHT22;3016;50.308;8.258;2023-07-20T00:56:53;15.90;1.00
5980;DHT22;3016;50.308;8.258;2023-07-20T00:59:54;15.80;1.00
5980;DHT22;3016;50.308;8.258;2023-07-20T01:02:55;15.80;1.00
5980;DHT22;3016;50.308;8.258;2023-07-20T01:12:47;15.10;1.00
5980;DHT22;3016;50.308;8.258;2023-07-20T01:16:01;15.10;1.00
5980;DHT22;3016;50.308;8.258;2023-07-20T01:19:01;15.10;1.00
5980;DHT22;3016;50.308;8.258;2023-07-20T01:25:54;14.90;1.00
5980;DHT22;3016;50.308;8.258;2023-07-20T01:32:44;14.70;1.00
5980;DHT22;3016;50.308;8.258;2023-07-20T01:35:55;14.80;1.00
5980;DHT22;3016;50.308;8.258;2023-07-20T01:38:58;14.70;1.00
5980;DHT22;3016;50.308;8.258;2023-07-20T01:42:00;14.70;1.00
5980;DHT22;3016;50.308;8.258;2023-07-20T01:45:00;14.80;1.00
5980;DHT22;3016;50.308;8.258;2023-07-20T01:48:01;14.70;1.00
5980;DHT22;3016;50.308;8.258;2023-07-20T01:51:02;14.70;1.00
5980;DHT22;3016;50.308;8.258;2023-07-20T01:54:03;14.70;1.00
5980;DHT22;3016;50.308;8.258;2023-07-20T01:57:04;14.70;1.00
5980;DHT22;3016;50.308;8.258;2023-07-20T02:00:05;14.70;1.00
5980;DHT22;3016;50.308;8.258;2023-07-20T02:03:07;14.80;1.00
5980;DHT22;3016;50.308;8.258;2023-07-20T02:06:07;14.80;1.00
5980;DHT22;3016;50.308;8.258;2023-07-20T02:09:08;14.80;1.00
5980;DHT22;3016;50.308;8.258;2023-07-20T02:12:09;14.80;1.00
5980;DHT22;3016;50.308;8.258;2023-07-20T02:15:10;14.90;1.00
5980;DHT22;3016;50.308;8.258;2023-07-20T02:18:11;14.90;1.00
5980;DHT22;3016;50.308;8.258;2023-07-20T02:21:11;15.00;1.00
5980;DHT22;3016;50.308;8.258;2023-07-20T02:24:13;14.90;1.00
5980;DHT22;3016;50.308;8.258;2023-07-20T02:27:13;14.70;1.00
5980;DHT22;3016;50.308;8.258;2023-07-20T02:30:14;14.70;1.00
5980;DHT22;3016;50.308;8.258;2023-07-20T02:33:16;14.80;1.00
5980;DHT22;3016;50.308;8.258;2023-07-20T02:36:17;15.00;1.00
5980;DHT22;3016;50.308;8.258;2023-07-20T02:39:18;15.20;1.00
5980;DHT22;3016;50.308;8.258;2023-07-20T02:42:18;15.20;1.00
5980;DHT22;3016;50.308;8.258;2023-07-20T02:45:19;15.30;1.00
5980;DHT22;3016;50.308;8.258;2023-07-20T02:48:20;15.40;1.00
5980;DHT22;3016;50.308;8.258;2023-07-20T02:51:21;15.40;1.00
5980;DHT22;3016;50.308;8.258;2023-07-20T02:54:21;15.40;1.00
5980;DHT22;3016;50.308;8.258;2023-07-20T02:57:22;15.40;1.00
5980;DHT22;3016;50.308;8.258;2023-07-20T03:00:23;15.40;1.00
5980;DHT22;3016;50.308;8.258;2023-07-20T03:03:23;15.40;1.00
5980;DHT22;3016;50.308;8.258;2023-07-20T03:06:24;15.20;1.00
5980;DHT22;3016;50.308;8.258;2023-07-20T03:09:25;15.20;1.00
5980;DHT22;3016;50.308;8.258;2023-07-20T03:12:25;15.00;1.00
5980;DHT22;3016;50.308;8.258;2023-07-20T03:15:27;14.80;1.00
5980;DHT22;3016;50.308;8.258;2023-07-20T03:18:28;14.70;1.00
5980;DHT22;3016;50.308;8.258;2023-07-20T03:21:28;14.70;1.00
5980;DHT22;3016;50.308;8.258;2023-07-20T03:24:29;14.80;1.00
5980;DHT22;3016;50.308;8.258;2023-07-20T03:27:30;14.70;1.00
5980;DHT22;3016;50.308;8.258;2023-07-20T03:30:31;14.70;1.00
5980;DHT22;3016;50.308;8.258;2023-07-20T03:33:32;14.60;1.00
5980;DHT22;3016;50.308;8.258;2023-07-20T03:36:32;14.30;1.00
5980;DHT22;3016;50.308;8.258;2023-07-20T03:39:33;14.30;1.00
5980;DHT22;3016;50.308;8.258;2023-07-20T03:42:34;14.20;1.00
5980;DHT22;3016;50.308;8.258;2023-07-20T03:45:34;14.20;1.00
5980;DHT22;3016;50.308;8.258;2023-07-20T03:48:35;14.00;1.00
5980;DHT22;3016;50.308;8.258;2023-07-20T03:51:36;14.00;1.00
5980;DHT22;3016;50.308;8.258;2023-07-20T03:54:37;14.00;1.00
5980;DHT22;3016;50.308;8.258;2023-07-20T03:57:37;14.00;1.00
5980;DHT22;3016;50.308;8.258;2023-07-20T04:00:38;13.90;1.00
5980;DHT22;3016;50.308;8.258;2023-07-20T04:03:39;13.70;1.00
5980;DHT22;3016;50.308;8.258;2023-07-20T04:06:39;13.60;1.00
5980;DHT22;3016;50.308;8.258;2023-07-20T04:09:40;13.70;1.00
5980;DHT22;3016;50.308;8.258;2023-07-20T04:12:41;13.60;1.00
5980;DHT22;3016;50.308;8.258;2023-07-20T04:15:42;13.50;1.00
5980;DHT22;3016;50.308;8.258;2023-07-20T04:18:43;13.60;1.00
5980;DHT22;3016;50.308;8.258;2023-07-20T04:21:44;13.60;1.00
5980;DHT22;3016;50.308;8.258;2023-07-20T04:24:44;13.50;1.00
5980;DHT22;3016;50.308;8.258;2023-07-20T04:27:45;13.50;1.00
5980;DHT22;3016;50.308;8.258;2023-07-20T04:30:49;13.40;1.00
5980;DHT22;3016;50.308;8.258;2023-07-20T04:33:50;13.50;1.00
5980;DHT22;3016;50.308;8.258;2023-07-20T04:36:51;13.40;1.00
5980;DHT22;3016;50.308;8.258;2023-07-20T04:39:52;13.40;1.00
5980;DHT22;3016;50.308;8.258;2023-07-20T04:42:53;13.30;1.00
5980;DHT22;3016;50.308;8.258;2023-07-20T04:45:53;13.30;1.00
5980;DHT22;3016;50.308;8.258;2023-07-20T04:48:54;13.40;1.00
5980;DHT22;3016;50.308;8.258;2023-07-20T04:51:54;13.30;1.00
5980;DHT22;3016;50.308;8.258;2023-07-20T04:54:55;13.30;1.00
5980;DHT22;3016;50.308;8.258;2023-07-20T04:57:56;13.30;3.60
5980;DHT22;3016;50.308;8.258;2023-07-20T05:00:57;13.30;4.70
5980;DHT22;3016;50.308;8.258;2023-07-20T05:03:57;13.50;1.00
5980;DHT22;3016;50.308;8.258;2023-07-20T05:06:58;13.60;1.50
5980;DHT22;3016;50.308;8.258;2023-07-20T05:09:59;13.70;1.10
5980;DHT22;3016;50.308;8.258;2023-07-20T05:13:00;13.70;1.00
5980;DHT22;3016;50.308;8.258;2023-07-20T05:16:00;13.80;1.00
5980;DHT22;3016;50.308;8.258;2023-07-20T05:19:01;13.90;1.00
5980;DHT22;3016;50.308;8.258;2023-07-20T05:22:02;13.90;1.00
5980;DHT22;3016;50.308;8.258;2023-07-20T05:25:03;14.00;1.00
5980;DHT22;3016;50.308;8.258;2023-07-20T05:28:04;14.10;1.00
5980;DHT22;3016;50.308;8.258;2023-07-20T05:31:06;14.30;1.00
5980;DHT22;3016;50.308;8.258;2023-07-20T05:34:06;14.30;1.00
5980;DHT22;3016;50.308;8.258;2023-07-20T05:37:07;14.40;1.00
5980;DHT22;3016;50.308;8.258;2023-07-20T05:40:08;14.50;1.00
5980;DHT22;3016;50.308;8.258;2023-07-20T05:43:12;14.70;1.00
5980;DHT22;3016;50.308;8.258;2023-07-20T05:46:13;14.90;1.00
5980;DHT22;3016;50.308;8.258;2023-07-20T05:49:13;15.10;1.00
5980;DHT22;3016;50.308;8.258;2023-07-20T05:52:15;15.10;1.00
5980;DHT22;3016;50.308;8.258;2023-07-20T05:55:19;15.30;1.00
5980;DHT22;3016;50.308;8.258;2023-07-20T05:58:20;15.40;1.00
5980;DHT22;3016;50.308;8.258;2023-07-20T06:01:20;15.60;1.00
5980;DHT22;3016;50.308;8.258;2023-07-20T06:04:21;16.00;1.00
5980;DHT22;3016;50.308;8.258;2023-07-20T06:07:22;16.10;1.00
5980;DHT22;3016;50.308;8.258;2023-07-20T06:10:23;16.10;1.00
5980;DHT22;3016;50.308;8.258;2023-07-20T06:13:23;16.00;1.00
5980;DHT22;3016;50.308;8.258;2023-07-20T06:16:25;16.10;1.00
5980;DHT22;3016;50.308;8.258;2023-07-20T06:19:26;16.20;1.00
5980;DHT22;3016;50.308;8.258;2023-07-20T06:22:26;16.30;1.00
5980;DHT22;3016;50.308;8.258;2023-07-20T06:25:27;16.40;1.00
5980;DHT22;3016;50.308;8.258;2023-07-20T06:28:28;16.50;1.00
5980;DHT22;3016;50.308;8.258;2023-07-20T06:31:28;16.60;1.00
5980;DHT22;3016;50.308;8.258;2023-07-20T06:34:29;16.70;1.00
5980;DHT22;3016;50.308;8.258;2023-07-20T06:37:30;16.80;1.00
5980;DHT22;3016;50.308;8.258;2023-07-20T06:40:31;16.90;1.00
5980;DHT22;3016;50.308;8.258;2023-07-20T06:43:32;17.00;1.00
5980;DHT22;3016;50.308;8.258;2023-07-20T06:46:32;17.00;1.00
5980;DHT22;3016;50.308;8.258;2023-07-20T06:49:33;17.00;1.00
5980;DHT22;3016;50.308;8.258;2023-07-20T06:52:34;16.90;1.00
5980;DHT22;3016;50.308;8.258;2023-07-20T06:55:34;17.00;1.00
5980;DHT22;3016;50.308;8.258;2023-07-20T06:58:35;16.90;1.00
5980;DHT22;3016;50.308;8.258;2023-07-20T07:01:36;16.90;1.00
5980;DHT22;3016;50.308;8.258;2023-07-20T07:04:37;17.00;1.00
5980;DHT22;3016;50.308;8.258;2023-07-20T07:07:37;17.10;1.00
5980;DHT22;3016;50.308;8.258;2023-07-20T07:10:38;17.20;1.00
5980;DHT22;3016;50.308;8.258;2023-07-20T07:13:39;17.20;1.00
5980;DHT22;3016;50.308;8.258;2023-07-20T07:16:39;17.20;1.00
5980;DHT22;3016;50.308;8.258;2023-07-20T07:19:40;17.30;1.00
5980;DHT22;3016;50.308;8.258;2023-07-20T07:22:41;17.40;1.00
5980;DHT22;3016;50.308;8.258;2023-07-20T07:25:46;17.50;1.00
5980;DHT22;3016;50.308;8.258;2023-07-20T07:28:46;17.60;1.00
5980;DHT22;3016;50.308;8.258;2023-07-20T07:31:47;17.60;1.00
5980;DHT22;3016;50.308;8.258;2023-07-20T07:34:48;17.60;1.00
5980;DHT22;3016;50.308;8.258;2023-07-20T07:37:49;17.60;1.00
5980;DHT22;3016;50.308;8.258;2023-07-20T07:40:50;17.70;1.00
5980;DHT22;3016;50.308;8.258;2023-07-20T07:43:51;17.80;1.00
5980;DHT22;3016;50.308;8.258;2023-07-20T07:46:51;18.00;1.00
5980;DHT22;3016;50.308;8.258;2023-07-20T07:49:52;18.00;1.00
5980;DHT22;3016;50.308;8.258;2023-07-20T07:52:53;18.00;1.00
5980;DHT22;3016;50.308;8.258;2023-07-20T07:55:53;18.00;1.00
5980;DHT22;3016;50.308;8.258;2023-07-20T07:58:54;18.00;1.00
5980;DHT22;3016;50.308;8.258;2023-07-20T08:01:55;18.00;1.00
5980;DHT22;3016;50.308;8.258;2023-07-20T08:04:55;18.00;1.00
5980;DHT22;3016;50.308;8.258;2023-07-20T08:07:56;18.00;1.00
5980;DHT22;3016;50.308;8.258;2023-07-20T08:10:57;18.10;1.00
5980;DHT22;3016;50.308;8.258;2023-07-20T08:13:59;18.10;1.00
5980;DHT22;3016;50.308;8.258;2023-07-20T08:17:00;18.20;1.00
5980;DHT22;3016;50.308;8.258;2023-07-20T08:20:01;18.30;1.00
5980;DHT22;3016;50.308;8.258;2023-07-20T08:23:02;18.30;1.00
5980;DHT22;3016;50.308;8.258;2023-07-20T08:26:03;18.30;1.00
5980;DHT22;3016;50.308;8.258;2023-07-20T08:29:04;18.60;1.00
5980;DHT22;3016;50.308;8.258;2023-07-20T08:32:06;19.00;1.00
5980;DHT22;3016;50.308;8.258;2023-07-20T08:35:07;19.10;1.00
5980;DHT22;3016;50.308;8.258;2023-07-20T08:38:08;19.10;1.00
5980;DHT22;3016;50.308;8.258;2023-07-20T08:41:09;19.00;1.00
5980;DHT22;3016;50.308;8.258;2023-07-20T08:44:10;18.90;1.00
5980;DHT22;3016;50.308;8.258;2023-07-20T08:47:12;18.80;1.00
5980;DHT22;3016;50.308;8.258;2023-07-20T08:50:15;18.60;1.00
5980;DHT22;3016;50.308;8.258;2023-07-20T08:53:16;18.90;1.00
5980;DHT22;3016;50.308;8.258;2023-07-20T08:56:18;19.30;1.00
5980;DHT22;3016;50.308;8.258;2023-07-20T08:59:19;19.90;1.00
5980;DHT22;3016;50.308;8.258;2023-07-20T09:02:25;20.20;1.00
5980;DHT22;3016;50.308;8.258;2023-07-20T09:05:27;20.60;1.00
5980;DHT22;3016;50.308;8.258;2023-07-20T09:08:27;20.40;1.00
5980;DHT22;3016;50.308;8.258;2023-07-20T09:11:28;20.10;1.00
5980;DHT22;3016;50.308;8.258;2023-07-20T09:14:30;19.70;1.00
5980;DHT22;3016;50.308;8.258;2023-07-20T09:17:32;19.60;1.00
5980;DHT22;3016;50.308;8.258;2023-07-20T09:20:33;20.00;1.00
5980;DHT22;3016;50.308;8.258;2023-07-20T09:23:37;20.50;1.00
5980;DHT22;3016;50.308;8.258;2023-07-20T09:26:44;21.10;1.00
5980;DHT22;3016;50.308;8.258;2023-07-20T09:29:50;21.20;1.00
5980;DHT22;3016;50.308;8.258;2023-07-20T09:32:51;21.40;1.00
5980;DHT22;3016;50.308;8.258;2023-07-20T09:35:52;21.60;1.00
5980;DHT22;3016;50.308;8.258;2023-07-20T09:38:53;21.70;1.00
5980;DHT22;3016;50.308;8.258;2023-07-20T09:41:54;21.30;1.00
5980;DHT22;3016;50.308;8.258;2023-07-20T09:44:55;21.10;1.00
5980;DHT22;3016;50.308;8.258;2023-07-20T09:48:06;20.70;1.00
5980;DHT22;3016;50.308;8.258;2023-07-20T09:51:08;20.30;1.00
5980;DHT22;3016;50.308;8.258;2023-07-20T09:54:10;20.20;1.00
5980;DHT22;3016;50.308;8.258;2023-07-20T09:57:11;20.20;1.00
5980;DHT22;3016;50.308;8.258;2023-07-20T10:00:14;20.60;1.00
5980;DHT22;3016;50.308;8.258;2023-07-20T10:03:20;21.00;1.00
5980;DHT22;3016;50.308;8.258;2023-07-20T10:06:24;21.20;1.00
5980;DHT22;3016;50.308;8.258;2023-07-20T10:09:25;21.50;1.00
5980;DHT22;3016;50.308;8.258;2023-07-20T10:12:28;21.90;1.00
5980;DHT22;3016;50.308;8.258;2023-07-20T10:15:33;21.50;1.00
5980;DHT22;3016;50.308;8.258;2023-07-20T10:19:07;21.40;1.00
5980;DHT22;3016;50.308;8.258;2023-07-20T10:22:14;21.50;1.00
5980;DHT22;3016;50.308;8.258;2023-07-20T10:25:18;21.60;1.00
5980;DHT22;3016;50.308;8.258;2023-07-20T10:28:21;21.70;1.00
5980;DHT22;3016;50.308;8.258;2023-07-20T10:31:24;22.00;1.00
5980;DHT22;3016;50.308;8.258;2023-07-20T10:34:24;21.90;1.00
5980;DHT22;3016;50.308;8.258;2023-07-20T10:37:54;22.20;1.00
5980;DHT22;3016;50.308;8.258;2023-07-20T10:40:55;22.40;1.00
5980;DHT22;3016;50.308;8.258;2023-07-20T10:44:04;22.80;1.00
5980;DHT22;3016;50.308;8.258;2023-07-20T10:47:11;22.60;1.00
5980;DHT22;3016;50.308;8.258;2023-07-20T10:50:12;22.40;1.00
5980;DHT22;3016;50.308;8.258;2023-07-20T10:53:18;22.10;1.00
5980;DHT22;3016;50.308;8.258;2023-07-20T10:56:23;22.30;1.00
5980;DHT22;3016;50.308;8.258;2023-07-20T11:02:24;22.50;1.00
5980;DHT22;3016;50.308;8.258;2023-07-20T11:05:34;22.80;1.00
5980;DHT22;3016;50.308;8.258;2023-07-20T11:08:42;23.00;1.00
5980;DHT22;3016;50.308;8.258;2023-07-20T11:11:46;22.90;1.00
5980;DHT22;3016;50.308;8.258;2023-07-20T11:14:55;23.00;1.00
5980;DHT22;3016;50.308;8.258;2023-07-20T11:18:13;22.90;1.00
5980;DHT22;3016;50.308;8.258;2023-07-20T11:21:15;22.90;1.00
5980;DHT22;3016;50.308;8.258;2023-07-20T11:24:16;22.80;1.00
5980;DHT22;3016;50.308;8.258;2023-07-20T11:27:17;22.90;1.00
5980;DHT22;3016;50.308;8.258;2023-07-20T11:30:22;23.00;1.00
5980;DHT22;3016;50.308;8.258;2023-07-20T11:33:23;23.10;1.00
5980;DHT22;3016;50.308;8.258;2023-07-20T11:36:24;23.20;1.00
5980;DHT22;3016;50.308;8.258;2023-07-20T11:39:25;23.30;1.00
5980;DHT22;3016;50.308;8.258;2023-07-20T11:42:25;23.20;1.00
5980;DHT22;3016;50.308;8.258;2023-07-20T11:45:26;23.30;1.00
5980;DHT22;3016;50.308;8.258;2023-07-20T11:48:27;23.20;1.00
5980;DHT22;3016;50.308;8.258;2023-07-20T11:51:29;23.20;1.00
5980;DHT22;3016;50.308;8.258;2023-07-20T11:54:32;23.40;1.00
5980;DHT22;3016;50.308;8.258;2023-07-20T11:57:38;23.70;1.00
5980;DHT22;3016;50.308;8.258;2023-07-20T12:00:39;23.70;1.00
5980;DHT22;3016;50.308;8.258;2023-07-20T12:03:42;23.50;1.00
5980;DHT22;3016;50.308;8.258;2023-07-20T12:06:45;23.50;1.00
5980;DHT22;3016;50.308;8.258;2023-07-20T12:10:06;23.40;1.00
5980;DHT22;3016;50.308;8.258;2023-07-20T12:13:10;23.50;1.00
5980;DHT22;3016;50.308;8.258;2023-07-20T12:16:16;23.60;1.00
5980;DHT22;3016;50.308;8.258;2023-07-20T12:19:17;23.90;1.00
5980;DHT22;3016;50.308;8.258;2023-07-20T12:22:18;24.00;1.00
5980;DHT22;3016;50.308;8.258;2023-07-20T12:25:18;23.90;1.00
5980;DHT22;3016;50.308;8.258;2023-07-20T12:28:20;24.00;1.00
5980;DHT22;3016;50.308;8.258;2023-07-20T12:31:21;24.10;1.00
5980;DHT22;3016;50.308;8.258;2023-07-20T12:34:23;24.20;1.00
5980;DHT22;3016;50.308;8.258;2023-07-20T12:37:24;24.40;1.00
5980;DHT22;3016;50.308;8.258;2023-07-20T12:40:25;24.50;1.00
5980;DHT22;3016;50.308;8.258;2023-07-20T12:43:26;24.20;1.00
5980;DHT22;3016;50.308;8.258;2023-07-20T12:46:27;23.80;1.00
5980;DHT22;3016;50.308;8.258;2023-07-20T12:49:29;23.50;1.00
5980;DHT22;3016;50.308;8.258;2023-07-20T12:52:30;23.30;1.00
5980;DHT22;3016;50.308;8.258;2023-07-20T12:55:31;23.10;1.00
5980;DHT22;3016;50.308;8.258;2023-07-20T12:58:32;23.10;1.00
5980;DHT22;3016;50.308;8.258;2023-07-20T13:01:33;23.10;1.00
5980;DHT22;3016;50.308;8.258;2023-07-20T13:04:33;23.10;1.00
5980;DHT22;3016;50.308;8.258;2023-07-20T13:07:36;23.10;1.00
5980;DHT22;3016;50.308;8.258;2023-07-20T13:10:38;23.10;1.00
5980;DHT22;3016;50.308;8.258;2023-07-20T13:13:39;23.00;1.00
5980;DHT22;3016;50.308;8.258;2023-07-20T13:16:39;23.10;1.00
5980;DHT22;3016;50.308;8.258;2023-07-20T13:19:40;23.20;1.00
5980;DHT22;3016;50.308;8.258;2023-07-20T13:22:41;23.20;1.00
5980;DHT22;3016;50.308;8.258;2023-07-20T13:25:41;23.20;1.00
5980;DHT22;3016;50.308;8.258;2023-07-20T13:28:42;23.00;1.00
5980;DHT22;3016;50.308;8.258;2023-07-20T13:31:43;22.90;1.00
5980;DHT22;3016;50.308;8.258;2023-07-20T13:34:44;23.00;1.00
5980;DHT22;3016;50.308;8.258;2023-07-20T13:37:45;22.90;1.00
5980;DHT22;3016;50.308;8.258;2023-07-20T13:40:46;22.80;1.00
5980;DHT22;3016;50.308;8.258;2023-07-20T13:43:47;22.70;1.00
5980;DHT22;3016;50.308;8.258;2023-07-20T13:46:48;22.70;1.00
5980;DHT22;3016;50.308;8.258;2023-07-20T13:49:49;22.70;1.00
5980;DHT22;3016;50.308;8.258;2023-07-20T13:52:49;22.70;1.00
5980;DHT22;3016;50.308;8.258;2023-07-20T13:55:50;22.70;1.00
5980;DHT22;3016;50.308;8.258;2023-07-20T13:58:52;22.70;1.00
5980;DHT22;3016;50.308;8.258;2023-07-20T14:01:53;22.80;1.00
5980;DHT22;3016;50.308;8.258;2023-07-20T14:04:54;22.80;1.00
5980;DHT22;3016;50.308;8.258;2023-07-20T14:07:56;22.90;1.00
5980;DHT22;3016;50.308;8.258;2023-07-20T14:10:56;22.90;1.00
5980;DHT22;3016;50.308;8.258;2023-07-20T14:13:57;23.00;1.00
5980;DHT22;3016;50.308;8.258;2023-07-20T14:17:00;23.10;1.00
5980;DHT22;3016;50.308;8.258;2023-07-20T14:20:02;22.90;1.00
5980;DHT22;3016;50.308;8.258;2023-07-20T14:23:05;22.90;1.00
5980;DHT22;3016;50.308;8.258;2023-07-20T14:26:06;23.10;1.00
5980;DHT22;3016;50.308;8.258;2023-07-20T14:29:09;23.10;1.00
5980;DHT22;3016;50.308;8.258;2023-07-20T14:32:09;23.20;1.00
5980;DHT22;3016;50.308;8.258;2023-07-20T14:35:10;23.20;1.00
5980;DHT22;3016;50.308;8.258;2023-07-20T14:38:12;23.00;1.00
5980;DHT22;3016;50.308;8.258;2023-07-20T14:41:13;22.90;1.00
5980;DHT22;3016;50.308;8.258;2023-07-20T14:44:13;23.00;1.00
5980;DHT22;3016;50.308;8.258;2023-07-20T14:47:14;23.00;1.00
5980;DHT22;3016;50.308;8.258;2023-07-20T14:50:15;23.00;1.00
5980;DHT22;3016;50.308;8.258;2023-07-20T14:53:16;23.00;1.00
5980;DHT22;3016;50.308;8.258;2023-07-20T14:56:16;23.00;1.00
5980;DHT22;3016;50.308;8.258;2023-07-20T14:59:17;22.80;1.00
5980;DHT22;3016;50.308;8.258;2023-07-20T15:02:19;22.80;1.00
5980;DHT22;3016;50.308;8.258;2023-07-20T15:05:23;22.70;1.00
5980;DHT22;3016;50.308;8.258;2023-07-20T15:08:25;22.80;1.00
5980;DHT22;3016;50.308;8.258;2023-07-20T15:11:25;22.80;1.00
5980;DHT22;3016;50.308;8.258;2023-07-20T15:14:26;22.80;1.00
5980;DHT22;3016;50.308;8.258;2023-07-20T15:17:27;22.80;1.00
5980;DHT22;3016;50.308;8.258;2023-07-20T15:20:27;22.80;1.00
5980;DHT22;3016;50.308;8.258;2023-07-20T15:23:28;22.90;1.00
5980;DHT22;3016;50.308;8.258;2023-07-20T15:26:29;22.90;1.00
5980;DHT22;3016;50.308;8.258;2023-07-20T15:29:31;22.90;1.00
5980;DHT22;3016;50.308;8.258;2023-07-20T15:32:32;23.10;1.00
5980;DHT22;3016;50.308;8.258;2023-07-20T15:35:32;23.00;1.00
5980;DHT22;3016;50.308;8.258;2023-07-20T15:38:33;23.10;1.00
5980;DHT22;3016;50.308;8.258;2023-07-20T15:41:34;23.10;1.00
5980;DHT22;3016;50.308;8.258;2023-07-20T15:44:35;23.10;1.00
5980;DHT22;3016;50.308;8.258;2023-07-20T15:47:36;23.10;1.00
5980;DHT22;3016;50.308;8.258;2023-07-20T15:50:36;23.10;1.00
5980;DHT22;3016;50.308;8.258;2023-07-20T15:53:37;23.10;1.00
5980;DHT22;3016;50.308;8.258;2023-07-20T15:56:39;23.10;1.00
5980;DHT22;3016;50.308;8.258;2023-07-20T15:59:40;22.90;1.00
5980;DHT22;3016;50.308;8.258;2023-07-20T16:02:41;23.00;1.00
5980;DHT22;3016;50.308;8.258;2023-07-20T16:05:42;23.50;1.00
5980;DHT22;3016;50.308;8.258;2023-07-20T16:08:44;23.80;1.00
5980;DHT22;3016;50.308;8.258;2023-07-20T16:11:44;24.00;1.00
5980;DHT22;3016;50.308;8.258;2023-07-20T16:14:45;23.90;1.00
5980;DHT22;3016;50.308;8.258;2023-07-20T16:17:46;23.90;1.00
5980;DHT22;3016;50.308;8.258;2023-07-20T16:20:47;23.90;1.00
5980;DHT22;3016;50.308;8.258;2023-07-20T16:23:47;23.80;1.00
5980;DHT22;3016;50.308;8.258;2023-07-20T16:26:48;23.90;1.00
5980;DHT22;3016;50.308;8.258;2023-07-20T16:29:49;23.80;1.00
5980;DHT22;3016;50.308;8.258;2023-07-20T16:32:50;23.20;1.00
5980;DHT22;3016;50.308;8.258;2023-07-20T16:35:50;23.00;1.00
5980;DHT22;3016;50.308;8.258;2023-07-20T16:38:51;22.90;1.00
5980;DHT22;3016;50.308;8.258;2023-07-20T16:41:52;23.10;1.00
5980;DHT22;3016;50.308;8.258;2023-07-20T16:44:53;23.00;1.00
5980;DHT22;3016;50.308;8.258;2023-07-20T16:47:54;23.00;1.00
5980;DHT22;3016;50.308;8.258;2023-07-20T16:50:55;23.30;1.00
5980;DHT22;3016;50.308;8.258;2023-07-20T16:53:58;23.70;1.00
5980;DHT22;3016;50.308;8.258;2023-07-20T16:56:59;24.00;1.00
5980;DHT22;3016;50.308;8.258;2023-07-20T17:00:00;24.20;1.00
5980;DHT22;3016;50.308;8.258;2023-07-20T17:03:01;24.20;1.00
5980;DHT22;3016;50.308;8.258;2023-07-20T17:06:04;23.80;1.00
5980;DHT22;3016;50.308;8.258;2023-07-20T17:09:06;23.40;1.00
5980;DHT22;3016;50.308;8.258;2023-07-20T17:12:07;23.10;1.00
5980;DHT22;3016;50.308;8.258;2023-07-20T17:15:09;23.10;1.00
5980;DHT22;3016;50.308;8.258;2023-07-20T17:18:10;22.70;1.00
5980;DHT22;3016;50.308;8.258;2023-07-20T17:21:10;22.70;1.00
5980;DHT22;3016;50.308;8.258;2023-07-20T17:24:11;22.50;1.00
5980;DHT22;3016;50.308;8.258;2023-07-20T17:27:12;22.30;1.00
5980;DHT22;3016;50.308;8.258;2023-07-20T17:30:13;22.30;1.00
5980;DHT22;3016;50.308;8.258;2023-07-20T17:33:14;22.30;1.00
5980;DHT22;3016;50.308;8.258;2023-07-20T17:36:15;22.50;1.00
5980;DHT22;3016;50.308;8.258;2023-07-20T17:39:17;22.50;1.00
5980;DHT22;3016;50.308;8.258;2023-07-20T17:42:18;22.50;1.00
5980;DHT22;3016;50.308;8.258;2023-07-20T17:45:20;22.50;1.00
5980;DHT22;3016;50.308;8.258;2023-07-20T17:48:21;22.40;1.00
5980;DHT22;3016;50.308;8.258;2023-07-20T17:51:22;22.20;1.00
5980;DHT22;3016;50.308;8.258;2023-07-20T17:54:22;22.20;1.00
5980;DHT22;3016;50.308;8.258;2023-07-20T17:57:23;22.10;1.00
5980;DHT22;3016;50.308;8.258;2023-07-20T18:00:24;22.00;1.00
5980;DHT22;3016;50.308;8.258;2023-07-20T18:03:24;22.00;1.00
5980;DHT22;3016;50.308;8.258;2023-07-20T18:06:29;22.00;1.00
5980;DHT22;3016;50.308;8.258;2023-07-20T18:09:29;21.90;1.00
5980;DHT22;3016;50.308;8.258;2023-07-20T18:12:30;21.90;1.00
5980;DHT22;3016;50.308;8.258;2023-07-20T18:15:32;21.80;1.00
5980;DHT22;3016;50.308;8.258;2023-07-20T18:18:32;21.80;1.00
5980;DHT22;3016;50.308;8.258;2023-07-20T18:21:33;21.80;1.00
5980;DHT22;3016;50.308;8.258;2023-07-20T18:24:34;21.60;1.00
5980;DHT22;3016;50.308;8.258;2023-07-20T18:27:34;21.50;1.00
5980;DHT22;3016;50.308;8.258;2023-07-20T18:30:38;21.50;1.00
5980;DHT22;3016;50.308;8.258;2023-07-20T18:33:40;21.40;1.00
5980;DHT22;3016;50.308;8.258;2023-07-20T18:36:41;21.30;1.00
5980;DHT22;3016;50.308;8.258;2023-07-20T18:39:44;21.30;1.00
5980;DHT22;3016;50.308;8.258;2023-07-20T18:42:46;21.30;1.00
5980;DHT22;3016;50.308;8.258;2023-07-20T18:45:47;21.20;1.00
5980;DHT22;3016;50.308;8.258;2023-07-20T18:48:48;21.20;1.00
5980;DHT22;3016;50.308;8.258;2023-07-20T18:51:48;21.10;1.00
5980;DHT22;3016;50.308;8.258;2023-07-20T18:54:49;21.10;1.00
5980;DHT22;3016;50.308;8.258;2023-07-20T18:57:50;21.00;1.00
5980;DHT22;3016;50.308;8.258;2023-07-20T19:00:51;21.00;1.00
5980;DHT22;3016;50.308;8.258;2023-07-20T19:03:51;21.10;1.00
5980;DHT22;3016;50.308;8.258;2023-07-20T19:06:52;21.10;1.00
5980;DHT22;3016;50.308;8.258;2023-07-20T19:09:53;21.00;1.00
5980;DHT22;3016;50.308;8.258;2023-07-20T19:12:53;20.90;1.00
5980;DHT22;3016;50.308;8.258;2023-07-20T19:15:54;20.80;1.00
5980;DHT22;3016;50.308;8.258;2023-07-20T19:18:59;20.60;1.00
5980;DHT22;3016;50.308;8.258;2023-07-20T19:22:00;20.50;1.00
5980;DHT22;3016;50.308;8.258;2023-07-20T19:25:00;20.30;1.00
5980;DHT22;3016;50.308;8.258;2023-07-20T19:28:01;20.10;1.00
5980;DHT22;3016;50.308;8.258;2023-07-20T19:31:02;19.90;1.00
5980;DHT22;3016;50.308;8.258;2023-07-20T19:34:06;19.70;1.00
5980;DHT22;3016;50.308;8.258;2023-07-20T19:37:06;19.60;1.00
5980;DHT22;3016;50.308;8.258;2023-07-20T19:40:07;19.50;1.00
5980;DHT22;3016;50.308;8.258;2023-07-20T19:43:09;19.50;1.00
5980;DHT22;3016;50.308;8.258;2023-07-20T19:46:13;19.40;1.00
5980;DHT22;3016;50.308;8.258;2023-07-20T19:49:14;19.30;1.00
5980;DHT22;3016;50.308;8.258;2023-07-20T19:52:15;19.20;1.00
5980;DHT22;3016;50.308;8.258;2023-07-20T19:55:15;19.10;1.00
5980;DHT22;3016;50.308;8.258;2023-07-20T19:58:16;19.00;1.00
5980;DHT22;3016;50.308;8.258;2023-07-20T20:01:17;18.90;1.00
5980;DHT22;3016;50.308;8.258;2023-07-20T20:04:20;18.80;1.00
5980;DHT22;3016;50.308;8.258;2023-07-20T20:07:20;18.60;1.00
5980;DHT22;3016;50.308;8.258;2023-07-20T20:10:21;18.40;1.00
5980;DHT22;3016;50.308;8.258;2023-07-20T20:13:22;18.40;1.00
5980;DHT22;3016;50.308;8.258;2023-07-20T20:16:22;18.40;1.00
5980;DHT22;3016;50.308;8.258;2023-07-20T20:19:23;18.40;1.00
5980;DHT22;3016;50.308;8.258;2023-07-20T20:22:24;18.30;1.00